MSC Davos — A8IG3 — position and weather

sailwx.info

Track history (hours):
 
Tides and Currents Weather Stations Pressure Air Temp Water Temp Dewpoint Dewpoint Depression Visibility Wind Speed Wind Dir Waves Ship Positions

MSC Davos

Last reported at 2017-Jul-08 05:01 UTC. Time now 2017-Jul-28 02:48 UTC.
Position S 31°14' E 030°17'.
Warning: this ship's position is 19 days out of date.

Length 210.9 m; beam 32.3 m; draft 12 m.

Type: Cargo ship. MMSI: 636090972.

Date/timePositionNaut miles runAvg speedWind from/ knotsBaromVisibWave heightAir tempDewpointWater temp
2017-Jul-08 05:01S 31°14' E 030°17'116.8
2017-Jul-08 04:58S 31°13' E 030°18'916.1
2017-Jul-08 04:25S 31°06' E 030°24'916.1
2017-Jul-08 03:50S 30°57' E 030°29'616.1
2017-Jul-08 03:29S 30°52' E 030°32'815.8
2017-Jul-08 03:00S 30°46' E 030°36'815.6
2017-Jul-08 02:31S 30°39' E 030°40'815.2
2017-Jul-08 02:01S 30°32' E 030°44'714.7
2017-Jul-08 01:30S 30°25' E 030°48'713.7
2017-Jul-08 01:00S 30°19' E 030°51'713.2
2017-Jul-08 00:30S 30°13' E 030°55'713.4
2017-Jul-08 00:00S 30°07' E 030°58'713.7
2017-Jul-07 23:30S 30°01' E 031°01'714.0
2017-Jul-07 23:01S 29°55' E 031°05'3 6.0
2017-Jul-07 22:30S 29°52' E 031°04'1 2.7
2017-Jul-07 22:00S 29°52' E 031°02'0 0.0
2017-Jul-07 21:28S 29°52' E 031°02'0 0.0
2017-Jul-07 21:00S 29°52' E 031°02'0 0.0
2017-Jul-07 20:30S 29°52' E 031°02'0 0.0
2017-Jul-07 20:00S 29°52' E 031°02'0 0.0
2017-Jul-07 19:30S 29°52' E 031°02'0 0.0
2017-Jul-07 19:00S 29°52' E 031°02'0 0.0
2017-Jul-07 18:30S 29°52' E 031°02'0 0.0
2017-Jul-07 18:00S 29°52' E 031°02'0 0.0
2017-Jul-07 17:30S 29°52' E 031°02'0 0.0
2017-Jul-07 17:00S 29°52' E 031°02'0 0.0
2017-Jul-07 16:30S 29°52' E 031°02'0 0.0
2017-Jul-07 16:00S 29°52' E 031°02'0 0.0
2017-Jul-07 15:30S 29°52' E 031°02'0 0.0
2017-Jul-07 15:00S 29°52' E 031°02'0 0.0
2017-Jul-07 14:00S 29°52' E 031°02'0 0.0
2017-Jul-07 13:30S 29°52' E 031°02'0 0.0
2017-Jul-07 13:00S 29°52' E 031°02'0 0.0
2017-Jul-07 12:30S 29°52' E 031°02'0 0.0
2017-Jul-07 12:00S 29°52' E 031°02'0 0.0
2017-Jul-07 11:30S 29°52' E 031°02'0 0.0
2017-Jul-07 11:00S 29°52' E 031°02'0 0.0
2017-Jul-07 10:30S 29°52' E 031°02'0 0.0
2017-Jul-07 10:00S 29°52' E 031°02'1 1.4
2017-Jul-07 09:30S 29°53' E 031°03'4 8.6
2017-Jul-07 09:01S 29°49' E 031°06'2 4.4
2017-Jul-07 08:30S 29°48' E 031°07'0 0.7
2017-Jul-07 08:00S 29°47' E 031°08'1 1.4
2017-Jul-07 07:31S 29°48' E 031°08'0 0.3
2017-Jul-07 07:00S 29°48' E 031°08'1 1.7
2017-Jul-07 06:30S 29°47' E 031°08'2 3.7
2017-Jul-07 06:00S 29°46' E 031°10'1 0.9
2017-Jul-07 05:26S 29°46' E 031°10'0 0.1
2017-Jul-07 04:59S 29°46' E 031°10'0 0.1
2017-Jul-07 04:30S 29°46' E 031°10'0 0.0
2017-Jul-07 03:58S 29°46' E 031°10'0 0.0
2017-Jul-07 03:28S 29°46' E 031°10'0 0.0
2017-Jul-07 02:59S 29°46' E 031°10'0 0.0
2017-Jul-07 02:29S 29°46' E 031°10'0 0.0
2017-Jul-07 02:00S 29°46' E 031°10'0 0.0
2017-Jul-07 01:28S 29°46' E 031°10'0 0.0
2017-Jul-07 01:00S 29°46' E 031°10'0 0.0
2017-Jul-07 00:30S 29°46' E 031°10'0 0.0
2017-Jul-07 00:00S 29°46' E 031°10'0 0.0
2017-Jul-06 23:29S 29°46' E 031°10'0 0.0
2017-Jul-06 23:14S 29°46' E 031°10'  
Track history (hours):
 
Tides and Currents Weather Stations Pressure Air Temp Water Temp Dewpoint Dewpoint Depression Visibility Wind Speed Wind Dir Waves Ship Positions

MSC Davos

Last reported at 2017-Jul-08 05:01 UTC. Time now 2017-Jul-28 02:48 UTC.
Position S 31°14' E 030°17'.
Warning: this ship's position is 19 days out of date.

Length 210.9 m; beam 32.3 m; draft 12 m.

Type: Cargo ship. MMSI: 636090972.

Date/timePositionNaut miles runAvg speedWind from/ knotsBaromVisibWave heightAir tempDewpointWater temp
2017-Jul-08 05:01S 31°14' E 030°17'116.8
2017-Jul-08 04:58S 31°13' E 030°18'916.1
2017-Jul-08 04:25S 31°06' E 030°24'916.1
2017-Jul-08 03:50S 30°57' E 030°29'616.1
2017-Jul-08 03:29S 30°52' E 030°32'815.8
2017-Jul-08 03:00S 30°46' E 030°36'815.6
2017-Jul-08 02:31S 30°39' E 030°40'815.2
2017-Jul-08 02:01S 30°32' E 030°44'714.7
2017-Jul-08 01:30S 30°25' E 030°48'713.7
2017-Jul-08 01:00S 30°19' E 030°51'713.2
2017-Jul-08 00:30S 30°13' E 030°55'713.4
2017-Jul-08 00:00S 30°07' E 030°58'713.7
2017-Jul-07 23:30S 30°01' E 031°01'714.0
2017-Jul-07 23:01S 29°55' E 031°05'3 6.0
2017-Jul-07 22:30S 29°52' E 031°04'1 2.7
2017-Jul-07 22:00S 29°52' E 031°02'0 0.0
2017-Jul-07 21:28S 29°52' E 031°02'0 0.0
2017-Jul-07 21:00S 29°52' E 031°02'0 0.0
2017-Jul-07 20:30S 29°52' E 031°02'0 0.0
2017-Jul-07 20:00S 29°52' E 031°02'0 0.0
2017-Jul-07 19:30S 29°52' E 031°02'0 0.0
2017-Jul-07 19:00S 29°52' E 031°02'0 0.0
2017-Jul-07 18:30S 29°52' E 031°02'0 0.0
2017-Jul-07 18:00S 29°52' E 031°02'0 0.0
2017-Jul-07 17:30S 29°52' E 031°02'0 0.0
2017-Jul-07 17:00S 29°52' E 031°02'0 0.0
2017-Jul-07 16:30S 29°52' E 031°02'0 0.0
2017-Jul-07 16:00S 29°52' E 031°02'0 0.0
2017-Jul-07 15:30S 29°52' E 031°02'0 0.0
2017-Jul-07 15:00S 29°52' E 031°02'0 0.0
2017-Jul-07 14:00S 29°52' E 031°02'0 0.0
2017-Jul-07 13:30S 29°52' E 031°02'0 0.0
2017-Jul-07 13:00S 29°52' E 031°02'0 0.0
2017-Jul-07 12:30S 29°52' E 031°02'0 0.0
2017-Jul-07 12:00S 29°52' E 031°02'0 0.0
2017-Jul-07 11:30S 29°52' E 031°02'0 0.0
2017-Jul-07 11:00S 29°52' E 031°02'0 0.0
2017-Jul-07 10:30S 29°52' E 031°02'0 0.0
2017-Jul-07 10:00S 29°52' E 031°02'1 1.4
2017-Jul-07 09:30S 29°53' E 031°03'4 8.6
2017-Jul-07 09:01S 29°49' E 031°06'2 4.4
2017-Jul-07 08:30S 29°48' E 031°07'0 0.7
2017-Jul-07 08:00S 29°47' E 031°08'1 1.4
2017-Jul-07 07:31S 29°48' E 031°08'0 0.3
2017-Jul-07 07:00S 29°48' E 031°08'1 1.7
2017-Jul-07 06:30S 29°47' E 031°08'2 3.7
2017-Jul-07 06:00S 29°46' E 031°10'1 0.9
2017-Jul-07 05:26S 29°46' E 031°10'0 0.1
2017-Jul-07 04:59S 29°46' E 031°10'0 0.1
2017-Jul-07 04:30S 29°46' E 031°10'0 0.0
2017-Jul-07 03:58S 29°46' E 031°10'0 0.0
2017-Jul-07 03:28S 29°46' E 031°10'0 0.0
2017-Jul-07 02:59S 29°46' E 031°10'0 0.0
2017-Jul-07 02:29S 29°46' E 031°10'0 0.0
2017-Jul-07 02:00S 29°46' E 031°10'0 0.0
2017-Jul-07 01:28S 29°46' E 031°10'0 0.0
2017-Jul-07 01:00S 29°46' E 031°10'0 0.0
2017-Jul-07 00:30S 29°46' E 031°10'0 0.0
2017-Jul-07 00:00S 29°46' E 031°10'0 0.0
2017-Jul-06 23:29S 29°46' E 031°10'0 0.0
2017-Jul-06 23:14S 29°46' E 031°10'  

Dump ship's entire track history